Flight Track Log - Related Links

Times and Time Zones

All times are in EDT time to prevent confusion due to time zone crossing. See the CTL22 flight status page for this flight to view local times or setup timezone preferences in your user account.

Time Position Orientation Groundspeed Altitude Reporting Facility
EDT Latitude Longitude Course Direction KTS MPH feet Rate Location/Type
Wed 09:15:42 PM 41.5353 -81.7094 336° Northwest 126 145 1,400  Level Cleveland Center
Wed 09:16:42 PM 41.5769 -81.7239 345° North 165 190 2,000 248 Climbing Cleveland Center
Wed 09:17:43 PM 41.6119 -81.7633 320° Northwest 165 190 1,900 98 Descending Cleveland Center
Wed 09:18:44 PM 41.6303 -81.8167 295° West 147 169 2,200 344 Climbing Cleveland Center
Wed 09:19:45 PM 41.6486 -81.8614 299° West 139 160 2,600 482 Climbing Cleveland Center
Wed 09:20:36 PM 41.6544 -81.8947 283° West 117 135 3,100 541 Climbing Cleveland Center
Wed 09:21:36 PM 41.6561 -81.9339 273° West 112 129 3,600 614 Climbing Cleveland Center
Wed 09:22:04 PM 41.6556 -81.9589 268° West 107 123 4,000 700 Climbing Cleveland Center
Wed 09:22:36 PM 41.6575 -81.9728 281° West 107 123 4,300 689 Climbing Cleveland Center
Wed 09:23:05 PM 41.6656 -81.9953 296° West 118 136 4,700 700 Climbing Cleveland Center
Wed 09:23:36 PM 41.6758 -82.0064 321° Northwest 112 129 5,000 625 Climbing Cleveland Center
Wed 09:23:53 PM 41.6819 -82.0233 296° West 112 129 5,200 500 Climbing Cleveland Center
Wed 09:24:36 PM 41.6922 -82.0431 305° West 117 135 5,500 689 Climbing Cleveland Center
Wed 09:24:54 PM 41.7003 -82.0600 302° West 119 137 5,900 500 Climbing Cleveland Center
Wed 09:25:36 PM 41.7103 -82.0853 298° West 136 157 6,000 98 Climbing Cleveland Center
Wed 09:25:55 PM 41.7206 -82.1047 305° West 147 169 6,000 100 Level Cleveland Center
Wed 09:26:36 PM 41.7325 -82.1358 297° West 158 182 6,100 98 Climbing Cleveland Center
Wed 09:26:56 PM 41.7450 -82.1528 315° West 163 188 6,100 -69 Level Cleveland Center
Wed 09:28:03 PM 41.7692 -82.2147 298° West 164 189 6,000 -52 Descending Cleveland Center
Wed 09:28:52 PM 41.7853 -82.2511 301° West 157 181 6,000  Level Cleveland Center
Wed 09:29:53 PM 41.8072 -82.3047 299° West 153 176 6,000  Level Cleveland Center
Wed 09:30:54 PM 41.8294 -82.3556 300° West 151 174 6,000  Level Cleveland Center
Wed 09:32:07 PM 41.8514 -82.4175 295° West 155 178 6,000  Level Cleveland Center
Wed 09:33:01 PM 41.8675 -82.4597 297° West 153 176 6,000 55 Level Cleveland Center
Wed 09:33:56 PM 41.8833 -82.5103 293° West 151 174 6,100 49 Climbing Cleveland Center
Wed 09:35:03 PM 41.9053 -82.5642 299° West 150 173 6,100 -47 Level Cleveland Center
Wed 09:36:04 PM 41.9169 -82.6175 286° West 148 170 6,000  Descending Cleveland Center
Wed 09:36:59 PM 41.9181 -82.6678 272° West 147 169 6,100 52 Climbing Cleveland Center
Wed 09:37:59 PM 41.9275 -82.7239 283° West 146 168 6,100 -50 Level Cleveland Center
Wed 09:39:00 PM 41.9328 -82.7769 278° West 148 170 6,000  Descending Cleveland Center
Wed 09:40:01 PM 41.9464 -82.8306 289° West 157 181 6,100  Climbing Cleveland Center
Wed 09:41:14 PM 41.9828 -82.8850 312° West 163 188 6,000 -86 Descending Cleveland Center
Wed 09:42:21 PM 42.0128 -82.9419 305° West 163 188 5,900  Descending Cleveland Center
Wed 09:43:09 PM 42.0392 -82.9764 316° Northwest 160 184 6,000 55 Climbing Cleveland Center
Wed 09:44:10 PM 42.0675 -83.0194 312° West 157 181 6,000  Level Cleveland Center
Wed 09:45:05 PM 42.0914 -83.0653 305° West 154 177 6,000  Level Cleveland Center
Wed 09:46:06 PM 42.1197 -83.1056 313° West 152 175 6,000  Level Cleveland Center
Wed 09:47:06 PM 42.1481 -83.1514 310° West 156 180 6,000  Level Cleveland Center
Wed 09:48:07 PM 42.1761 -83.1944 311° West 156 180 6,000  Level Cleveland Center
Wed 09:49:08 PM 42.2064 -83.2433 310° West 155 178 6,000  Level Cleveland Center
Wed 09:50:15 PM 42.2322 -83.2922 306° West 155 178 6,000  Level Cleveland Center
Wed 09:51:16 PM 42.2542 -83.3408 301° West 148 170 6,000  Level Cleveland Center
Wed 09:52:17 PM 42.2694 -83.3947 291° West 153 176 6,000  Level Cleveland Center
Wed 09:53:11 PM 42.2850 -83.4406 295° West 154 177 6,000  Level Cleveland Center
Wed 09:54:18 PM 42.3044 -83.5003 294° West 153 176 6,000  Level Cleveland Center
Wed 09:55:19 PM 42.3217 -83.5544 293° West 149 171 6,000  Level Cleveland Center
Wed 09:56:20 PM 42.3350 -83.6083 289° West 148 170 6,000  Level Cleveland Center
Wed 09:57:21 PM 42.3525 -83.6569 296° West 146 168 6,000  Level Cleveland Center
Wed 09:58:22 PM 42.3678 -83.7083 292° West 147 169 6,000  Level Cleveland Center
Wed 09:59:55 PM 42.3911 -83.7819 293° West 148 170 6,000  Level Chicago Center
Wed 10:00:57 PM 42.4072 -83.8350 292° West 149 171 6,000  Level Chicago Center
Wed 10:01:59 PM 42.4267 -83.8989 292° West 151 174 6,000  Level Chicago Center
Wed 10:03:01 PM 42.4419 -83.9528 291° West 153 176 6,000  Level Chicago Center
Wed 10:04:02 PM 42.4572 -84.0069 291° West 154 177 6,000  Level Chicago Center
Wed 10:05:04 PM 42.4739 -84.0606 293° West 154 177 6,000  Level Chicago Center
Wed 10:06:06 PM 42.4875 -84.1136 289° West 150 173 6,000  Level Chicago Center
Wed 10:07:07 PM 42.5044 -84.1683 293° West 155 178 6,000  Level Chicago Center
Wed 10:08:09 PM 42.5200 -84.2203 292° West 152 175 6,000  Level Chicago Center
Wed 10:09:11 PM 42.5364 -84.2753 292° West 156 180 6,000  Level Chicago Center
Wed 10:10:12 PM 42.5539 -84.3419 290° West 157 181 6,000  Level Chicago Center
Wed 10:11:14 PM 42.5711 -84.3967 293° West 158 182 6,000  Level Chicago Center
Wed 10:12:16 PM 42.5850 -84.4494 290° West 153 176 6,000 49 Level Chicago Center
Wed 10:13:17 PM 42.6028 -84.5036 294° West 156 180 6,100 49 Climbing Chicago Center
Wed 10:14:19 PM 42.6194 -84.5556 294° West 152 175 6,100 -48 Level Chicago Center
Wed 10:15:21 PM 42.6386 -84.6089 296° West 156 180 6,000 -49 Descending Chicago Center
Wed 10:16:22 PM 42.6561 -84.6636 294° West 157 181 6,000  Level Chicago Center
Wed 10:17:24 PM 42.6733 -84.7175 294° West 156 180 6,000  Level Chicago Center
Wed 10:18:25 PM 42.6917 -84.7822 291° West 154 177 6,000 49 Level Chicago Center
Wed 10:19:27 PM 42.7067 -84.8367 291° West 155 178 6,100  Climbing Chicago Center
Wed 10:20:29 PM 42.7236 -84.8914 293° West 157 181 6,000 -49 Descending Chicago Center
Wed 10:21:30 PM 42.7417 -84.9447 295° West 157 181 6,000  Level Chicago Center
Wed 10:22:32 PM 42.7625 -84.9953 299° West 156 180 6,000 49 Level Chicago Center
Wed 10:23:33 PM 42.7833 -85.0478 298° West 157 181 6,100 -49 Climbing Chicago Center
Wed 10:24:35 PM 42.8083 -85.0953 306° West 156 180 5,900 -195 Descending Chicago Center
Wed 10:25:36 PM 42.8431 -85.1486 312° West 160 184 5,700 -439 Descending Chicago Center
Wed 10:26:38 PM 42.8892 -85.1719 340° North 175 201 5,000 -634 Descending Chicago Center
Wed 10:27:39 PM 42.9344 -85.1722 360° North 168 193 4,400 -634 Descending Chicago Center
Wed 10:28:41 PM 42.9344 -85.1939 270° West 168 193 3,700 -585 Descending Chicago Center
Wed 10:29:42 PM 42.9094 -85.2269 224° Southwest 154 177 3,200 -443 Descending Chicago Center
Wed 10:30:43 PM 42.9061 -85.2758 265° West 137 158 2,800 -244 Descending Chicago Center
Wed 10:31:45 PM 42.9006 -85.3203 260° West 126 145 2,700 -48 Descending Chicago Center
Wed 10:32:47 PM 42.8953 -85.3608 260° West 117 135 2,700 -49 Level Chicago Center
Wed 10:33:48 PM 42.8911 -85.4008 262° West 111 128 2,600 -393 Descending Chicago Center
Wed 10:34:49 PM 42.8875 -85.4469 264° West 106 122 1,900 -738 Descending Chicago Center
Wed 10:35:50 PM 42.8825 -85.4878 261° West 106 122 1,100 -439 Descending Chicago Center
Wed 10:36:52 PM 42.8775 -85.5289 261° West 107 123 1,000 -97 Descending Chicago Center
Wed 10:38:00 PM 42.8808 -85.5228 53° Northeast  Level Estimated

Login

Don't have an account? Register now (free) for customized features, flight alerts, and more!